sensor_id;sensor_type;location;lat;lon;timestamp;temperature;humidity
21734;DHT22;11029;47.820;10.534;2023-06-10T00:00:40;14.20;62.10
21734;DHT22;11029;47.820;10.534;2023-06-10T00:03:11;14.10;62.10
21734;DHT22;11029;47.820;10.534;2023-06-10T00:05:37;13.50;64.80
21734;DHT22;11029;47.820;10.534;2023-06-10T00:08:07;13.30;66.30
21734;DHT22;11029;47.820;10.534;2023-06-10T00:10:35;13.40;65.10
21734;DHT22;11029;47.820;10.534;2023-06-10T00:13:04;13.40;65.00
21734;DHT22;11029;47.820;10.534;2023-06-10T00:15:31;13.50;64.40
21734;DHT22;11029;47.820;10.534;2023-06-10T00:17:58;13.50;64.30
21734;DHT22;11029;47.820;10.534;2023-06-10T00:20:25;13.70;63.80
21734;DHT22;11029;47.820;10.534;2023-06-10T00:22:52;13.70;64.10
21734;DHT22;11029;47.820;10.534;2023-06-10T00:25:19;13.80;64.00
21734;DHT22;11029;47.820;10.534;2023-06-10T00:27:46;14.00;62.90
21734;DHT22;11029;47.820;10.534;2023-06-10T00:30:13;14.10;62.50
21734;DHT22;11029;47.820;10.534;2023-06-10T00:32:40;14.10;62.40
21734;DHT22;11029;47.820;10.534;2023-06-10T00:35:07;13.80;63.40
21734;DHT22;11029;47.820;10.534;2023-06-10T00:37:34;13.90;62.60
21734;DHT22;11029;47.820;10.534;2023-06-10T00:40:03;13.80;62.20
21734;DHT22;11029;47.820;10.534;2023-06-10T00:42:31;13.80;62.30
21734;DHT22;11029;47.820;10.534;2023-06-10T00:44:58;13.80;62.80
21734;DHT22;11029;47.820;10.534;2023-06-10T00:47:25;13.70;63.40
21734;DHT22;11029;47.820;10.534;2023-06-10T00:49:53;13.70;63.60
21734;DHT22;11029;47.820;10.534;2023-06-10T00:52:25;13.60;63.50
21734;DHT22;11029;47.820;10.534;2023-06-10T00:54:53;13.30;65.70
21734;DHT22;11029;47.820;10.534;2023-06-10T00:57:21;13.40;65.00
21734;DHT22;11029;47.820;10.534;2023-06-10T00:59:48;13.40;65.00
21734;DHT22;11029;47.820;10.534;2023-06-10T01:02:16;13.40;64.60
21734;DHT22;11029;47.820;10.534;2023-06-10T01:04:43;13.10;65.90
21734;DHT22;11029;47.820;10.534;2023-06-10T01:07:23;12.70;67.90
21734;DHT22;11029;47.820;10.534;2023-06-10T01:10:05;12.70;67.80
21734;DHT22;11029;47.820;10.534;2023-06-10T01:12:46;12.90;66.40
21734;DHT22;11029;47.820;10.534;2023-06-10T01:15:17;12.80;66.00
21734;DHT22;11029;47.820;10.534;2023-06-10T01:18:07;12.80;66.70
21734;DHT22;11029;47.820;10.534;2023-06-10T01:20:43;12.90;66.90
21734;DHT22;11029;47.820;10.534;2023-06-10T01:23:11;13.00;66.10
21734;DHT22;11029;47.820;10.534;2023-06-10T01:25:44;13.00;65.90
21734;DHT22;11029;47.820;10.534;2023-06-10T01:28:20;12.80;65.50
21734;DHT22;11029;47.820;10.534;2023-06-10T01:31:06;12.80;65.90
21734;DHT22;11029;47.820;10.534;2023-06-10T01:33:51;12.80;67.00
21734;DHT22;11029;47.820;10.534;2023-06-10T01:36:19;12.80;66.50
21734;DHT22;11029;47.820;10.534;2023-06-10T01:38:48;12.90;66.30
21734;DHT22;11029;47.820;10.534;2023-06-10T01:41:17;12.60;67.30
21734;DHT22;11029;47.820;10.534;2023-06-10T01:43:45;12.40;68.50
21734;DHT22;11029;47.820;10.534;2023-06-10T01:46:14;12.50;68.00
21734;DHT22;11029;47.820;10.534;2023-06-10T01:48:42;12.60;67.10
21734;DHT22;11029;47.820;10.534;2023-06-10T01:51:09;12.60;67.80
21734;DHT22;11029;47.820;10.534;2023-06-10T01:53:35;12.70;67.20
21734;DHT22;11029;47.820;10.534;2023-06-10T01:56:02;12.70;66.80
21734;DHT22;11029;47.820;10.534;2023-06-10T01:58:29;12.60;67.20
21734;DHT22;11029;47.820;10.534;2023-06-10T02:00:56;12.60;67.00
21734;DHT22;11029;47.820;10.534;2023-06-10T02:03:23;12.60;67.10
21734;DHT22;11029;47.820;10.534;2023-06-10T02:05:50;12.60;66.90
21734;DHT22;11029;47.820;10.534;2023-06-10T02:08:17;12.70;65.90
21734;DHT22;11029;47.820;10.534;2023-06-10T02:10:43;12.40;65.90
21734;DHT22;11029;47.820;10.534;2023-06-10T02:13:10;12.30;66.70
21734;DHT22;11029;47.820;10.534;2023-06-10T02:15:38;12.20;67.00
21734;DHT22;11029;47.820;10.534;2023-06-10T02:18:05;12.20;67.10
21734;DHT22;11029;47.820;10.534;2023-06-10T02:20:32;12.20;67.20
21734;DHT22;11029;47.820;10.534;2023-06-10T02:22:59;12.30;66.60
21734;DHT22;11029;47.820;10.534;2023-06-10T02:25:26;12.40;66.00
21734;DHT22;11029;47.820;10.534;2023-06-10T02:27:53;12.40;66.00
21734;DHT22;11029;47.820;10.534;2023-06-10T02:30:20;12.40;66.40
21734;DHT22;11029;47.820;10.534;2023-06-10T02:32:47;12.30;65.80
21734;DHT22;11029;47.820;10.534;2023-06-10T02:35:16;12.30;66.00
21734;DHT22;11029;47.820;10.534;2023-06-10T02:37:44;12.20;66.00
21734;DHT22;11029;47.820;10.534;2023-06-10T02:40:11;12.20;66.20
21734;DHT22;11029;47.820;10.534;2023-06-10T02:42:38;12.10;66.60
21734;DHT22;11029;47.820;10.534;2023-06-10T02:45:06;12.10;66.50
21734;DHT22;11029;47.820;10.534;2023-06-10T02:47:38;12.00;66.80
21734;DHT22;11029;47.820;10.534;2023-06-10T02:50:07;12.10;66.30
21734;DHT22;11029;47.820;10.534;2023-06-10T02:52:40;11.90;67.00
21734;DHT22;11029;47.820;10.534;2023-06-10T02:55:07;11.90;67.80
21734;DHT22;11029;47.820;10.534;2023-06-10T02:57:35;11.90;67.80
21734;DHT22;11029;47.820;10.534;2023-06-10T03:00:04;11.90;66.50
21734;DHT22;11029;47.820;10.534;2023-06-10T03:02:39;11.70;66.70
21734;DHT22;11029;47.820;10.534;2023-06-10T03:05:08;11.60;67.50
21734;DHT22;11029;47.820;10.534;2023-06-10T03:07:43;11.70;67.40
21734;DHT22;11029;47.820;10.534;2023-06-10T03:10:09;11.80;68.10
21734;DHT22;11029;47.820;10.534;2023-06-10T03:12:38;11.90;67.00
21734;DHT22;11029;47.820;10.534;2023-06-10T03:15:06;12.00;65.80
21734;DHT22;11029;47.820;10.534;2023-06-10T03:17:34;12.00;65.70
21734;DHT22;11029;47.820;10.534;2023-06-10T03:20:05;11.70;66.10
21734;DHT22;11029;47.820;10.534;2023-06-10T03:22:33;11.50;66.90
21734;DHT22;11029;47.820;10.534;2023-06-10T03:25:07;11.40;67.30
21734;DHT22;11029;47.820;10.534;2023-06-10T03:27:43;11.30;68.30
21734;DHT22;11029;47.820;10.534;2023-06-10T03:30:12;11.40;68.00
21734;DHT22;11029;47.820;10.534;2023-06-10T03:32:40;11.20;69.60
21734;DHT22;11029;47.820;10.534;2023-06-10T03:35:09;10.90;71.80
21734;DHT22;11029;47.820;10.534;2023-06-10T03:37:37;10.90;71.80
21734;DHT22;11029;47.820;10.534;2023-06-10T03:40:06;10.90;71.90
21734;DHT22;11029;47.820;10.534;2023-06-10T03:42:35;11.00;70.00
21734;DHT22;11029;47.820;10.534;2023-06-10T03:45:02;11.00;70.10
21734;DHT22;11029;47.820;10.534;2023-06-10T03:47:34;11.10;70.00
21734;DHT22;11029;47.820;10.534;2023-06-10T03:50:04;11.30;69.50
21734;DHT22;11029;47.820;10.534;2023-06-10T03:52:31;11.50;69.10
21734;DHT22;11029;47.820;10.534;2023-06-10T03:54:59;11.50;69.00
21734;DHT22;11029;47.820;10.534;2023-06-10T03:57:26;11.60;68.40
21734;DHT22;11029;47.820;10.534;2023-06-10T03:59:53;11.50;68.10
21734;DHT22;11029;47.820;10.534;2023-06-10T04:02:20;11.30;69.80
21734;DHT22;11029;47.820;10.534;2023-06-10T04:04:48;11.10;70.40
21734;DHT22;11029;47.820;10.534;2023-06-10T04:07:15;11.10;71.20
21734;DHT22;11029;47.820;10.534;2023-06-10T04:09:42;11.20;70.30
21734;DHT22;11029;47.820;10.534;2023-06-10T04:12:09;11.30;69.90
21734;DHT22;11029;47.820;10.534;2023-06-10T04:14:37;11.40;69.90
21734;DHT22;11029;47.820;10.534;2023-06-10T04:17:06;11.30;70.10
21734;DHT22;11029;47.820;10.534;2023-06-10T04:19:34;11.50;69.30
21734;DHT22;11029;47.820;10.534;2023-06-10T04:22:02;11.50;69.70
21734;DHT22;11029;47.820;10.534;2023-06-10T04:24:31;11.70;69.20
21734;DHT22;11029;47.820;10.534;2023-06-10T04:26:58;11.80;69.20
21734;DHT22;11029;47.820;10.534;2023-06-10T04:29:25;11.90;68.70
21734;DHT22;11029;47.820;10.534;2023-06-10T04:31:53;12.00;68.60
21734;DHT22;11029;47.820;10.534;2023-06-10T04:34:20;12.00;69.00
21734;DHT22;11029;47.820;10.534;2023-06-10T04:36:46;12.10;68.50
21734;DHT22;11029;47.820;10.534;2023-06-10T04:39:14;12.20;68.10
21734;DHT22;11029;47.820;10.534;2023-06-10T04:41:43;12.40;67.90
21734;DHT22;11029;47.820;10.534;2023-06-10T04:44:10;12.60;67.50
21734;DHT22;11029;47.820;10.534;2023-06-10T04:46:37;12.70;67.60
21734;DHT22;11029;47.820;10.534;2023-06-10T04:49:04;12.90;67.20
21734;DHT22;11029;47.820;10.534;2023-06-10T04:51:31;12.90;67.20
21734;DHT22;11029;47.820;10.534;2023-06-10T04:53:59;13.00;67.30
21734;DHT22;11029;47.820;10.534;2023-06-10T04:56:29;13.10;67.20
21734;DHT22;11029;47.820;10.534;2023-06-10T04:58:57;13.10;66.70
21734;DHT22;11029;47.820;10.534;2023-06-10T05:01:24;13.10;67.40
21734;DHT22;11029;47.820;10.534;2023-06-10T05:03:51;13.20;67.50
21734;DHT22;11029;47.820;10.534;2023-06-10T05:06:18;13.40;67.20
21734;DHT22;11029;47.820;10.534;2023-06-10T05:08:44;13.50;67.10
21734;DHT22;11029;47.820;10.534;2023-06-10T05:11:11;13.60;67.20
21734;DHT22;11029;47.820;10.534;2023-06-10T05:13:38;13.60;67.30
21734;DHT22;11029;47.820;10.534;2023-06-10T05:16:06;13.60;67.70
21734;DHT22;11029;47.820;10.534;2023-06-10T05:18:34;13.70;67.80
21734;DHT22;11029;47.820;10.534;2023-06-10T05:21:02;13.70;68.40
21734;DHT22;11029;47.820;10.534;2023-06-10T05:23:29;13.70;69.70
21734;DHT22;11029;47.820;10.534;2023-06-10T05:25:56;13.80;70.30
21734;DHT22;11029;47.820;10.534;2023-06-10T05:28:23;14.00;70.70
21734;DHT22;11029;47.820;10.534;2023-06-10T05:30:49;14.10;70.60
21734;DHT22;11029;47.820;10.534;2023-06-10T05:33:16;14.20;70.70
21734;DHT22;11029;47.820;10.534;2023-06-10T05:35:43;14.30;70.90
21734;DHT22;11029;47.820;10.534;2023-06-10T05:38:10;14.50;70.30
21734;DHT22;11029;47.820;10.534;2023-06-10T05:40:36;14.60;70.30
21734;DHT22;11029;47.820;10.534;2023-06-10T05:43:03;14.90;69.90
21734;DHT22;11029;47.820;10.534;2023-06-10T05:45:30;15.10;69.50
21734;DHT22;11029;47.820;10.534;2023-06-10T05:47:57;15.30;68.60
21734;DHT22;11029;47.820;10.534;2023-06-10T05:50:24;15.20;68.80
21734;DHT22;11029;47.820;10.534;2023-06-10T05:52:51;15.20;69.20
21734;DHT22;11029;47.820;10.534;2023-06-10T05:55:20;15.40;68.50
21734;DHT22;11029;47.820;10.534;2023-06-10T05:57:48;15.70;68.40
21734;DHT22;11029;47.820;10.534;2023-06-10T06:00:25;15.80;68.10
21734;DHT22;11029;47.820;10.534;2023-06-10T06:02:53;16.10;67.00
21734;DHT22;11029;47.820;10.534;2023-06-10T06:05:20;16.20;66.40
21734;DHT22;11029;47.820;10.534;2023-06-10T06:07:47;16.30;65.60
21734;DHT22;11029;47.820;10.534;2023-06-10T06:10:16;16.40;65.70
21734;DHT22;11029;47.820;10.534;2023-06-10T06:12:43;16.50;65.90
21734;DHT22;11029;47.820;10.534;2023-06-10T06:15:10;16.60;66.00
21734;DHT22;11029;47.820;10.534;2023-06-10T06:17:38;16.80;65.80
21734;DHT22;11029;47.820;10.534;2023-06-10T06:20:05;16.90;65.60
21734;DHT22;11029;47.820;10.534;2023-06-10T06:22:32;17.00;65.20
21734;DHT22;11029;47.820;10.534;2023-06-10T06:24:59;17.20;64.80
21734;DHT22;11029;47.820;10.534;2023-06-10T06:27:26;17.40;64.20
21734;DHT22;11029;47.820;10.534;2023-06-10T06:29:53;17.50;64.20
21734;DHT22;11029;47.820;10.534;2023-06-10T06:32:25;17.70;63.20
21734;DHT22;11029;47.820;10.534;2023-06-10T06:34:54;17.60;63.30
21734;DHT22;11029;47.820;10.534;2023-06-10T06:37:22;17.80;62.90
21734;DHT22;11029;47.820;10.534;2023-06-10T06:39:53;17.80;62.80
21734;DHT22;11029;47.820;10.534;2023-06-10T06:42:20;17.90;62.80
21734;DHT22;11029;47.820;10.534;2023-06-10T06:44:57;18.00;62.90
21734;DHT22;11029;47.820;10.534;2023-06-10T06:47:24;18.10;63.50
21734;DHT22;11029;47.820;10.534;2023-06-10T06:49:51;18.20;62.60
21734;DHT22;11029;47.820;10.534;2023-06-10T06:52:18;18.30;63.10
21734;DHT22;11029;47.820;10.534;2023-06-10T06:54:45;18.40;62.80
21734;DHT22;11029;47.820;10.534;2023-06-10T06:57:12;18.40;61.50
21734;DHT22;11029;47.820;10.534;2023-06-10T06:59:39;18.40;60.90
21734;DHT22;11029;47.820;10.534;2023-06-10T07:02:06;18.50;60.80
21734;DHT22;11029;47.820;10.534;2023-06-10T07:04:32;18.60;60.30
21734;DHT22;11029;47.820;10.534;2023-06-10T07:06:59;18.60;59.60
21734;DHT22;11029;47.820;10.534;2023-06-10T07:09:26;18.70;60.10
21734;DHT22;11029;47.820;10.534;2023-06-10T07:11:54;18.70;60.50
21734;DHT22;11029;47.820;10.534;2023-06-10T07:14:21;18.80;60.10
21734;DHT22;11029;47.820;10.534;2023-06-10T07:16:48;18.70;59.50
21734;DHT22;11029;47.820;10.534;2023-06-10T07:19:16;18.70;59.40
21734;DHT22;11029;47.820;10.534;2023-06-10T07:21:43;18.70;59.30
21734;DHT22;11029;47.820;10.534;2023-06-10T07:24:09;18.90;59.70
21734;DHT22;11029;47.820;10.534;2023-06-10T07:26:36;19.00;59.30
21734;DHT22;11029;47.820;10.534;2023-06-10T07:29:03;19.10;59.30
21734;DHT22;11029;47.820;10.534;2023-06-10T07:31:30;19.20;58.60
21734;DHT22;11029;47.820;10.534;2023-06-10T07:33:57;19.20;58.60
21734;DHT22;11029;47.820;10.534;2023-06-10T07:36:24;19.20;58.40
21734;DHT22;11029;47.820;10.534;2023-06-10T07:38:54;19.10;59.60
21734;DHT22;11029;47.820;10.534;2023-06-10T07:41:23;19.20;59.40
21734;DHT22;11029;47.820;10.534;2023-06-10T07:43:53;19.30;59.30
21734;DHT22;11029;47.820;10.534;2023-06-10T07:46:21;19.40;58.60
21734;DHT22;11029;47.820;10.534;2023-06-10T07:48:49;19.40;58.70
21734;DHT22;11029;47.820;10.534;2023-06-10T07:51:16;19.40;57.80
21734;DHT22;11029;47.820;10.534;2023-06-10T07:53:43;19.40;58.30
21734;DHT22;11029;47.820;10.534;2023-06-10T07:56:10;19.40;58.40
21734;DHT22;11029;47.820;10.534;2023-06-10T07:58:37;19.40;58.90
21734;DHT22;11029;47.820;10.534;2023-06-10T08:01:03;19.50;58.00
21734;DHT22;11029;47.820;10.534;2023-06-10T08:03:30;19.50;58.70
21734;DHT22;11029;47.820;10.534;2023-06-10T08:05:57;19.70;59.00
21734;DHT22;11029;47.820;10.534;2023-06-10T08:08:24;19.70;58.10
21734;DHT22;11029;47.820;10.534;2023-06-10T08:10:52;19.80;57.80
21734;DHT22;11029;47.820;10.534;2023-06-10T08:13:19;19.90;58.20
21734;DHT22;11029;47.820;10.534;2023-06-10T08:15:45;20.00;58.50
21734;DHT22;11029;47.820;10.534;2023-06-10T08:18:14;20.00;58.30
21734;DHT22;11029;47.820;10.534;2023-06-10T08:20:41;20.10;58.00
21734;DHT22;11029;47.820;10.534;2023-06-10T08:23:08;20.20;57.20
21734;DHT22;11029;47.820;10.534;2023-06-10T08:25:34;20.10;57.20
21734;DHT22;11029;47.820;10.534;2023-06-10T08:28:01;20.20;56.90
21734;DHT22;11029;47.820;10.534;2023-06-10T08:30:28;20.20;56.70
21734;DHT22;11029;47.820;10.534;2023-06-10T08:32:55;20.40;56.50
21734;DHT22;11029;47.820;10.534;2023-06-10T08:35:22;20.50;56.10
21734;DHT22;11029;47.820;10.534;2023-06-10T08:37:49;20.50;55.10
21734;DHT22;11029;47.820;10.534;2023-06-10T08:40:16;20.40;55.60
21734;DHT22;11029;47.820;10.534;2023-06-10T08:45:18;20.70;54.90
21734;DHT22;11029;47.820;10.534;2023-06-10T08:47:46;20.70;55.80
21734;DHT22;11029;47.820;10.534;2023-06-10T08:50:17;20.90;56.10
21734;DHT22;11029;47.820;10.534;2023-06-10T08:52:48;21.00;54.70
21734;DHT22;11029;47.820;10.534;2023-06-10T08:55:18;21.00;54.70
21734;DHT22;11029;47.820;10.534;2023-06-10T08:57:49;21.10;53.20
21734;DHT22;11029;47.820;10.534;2023-06-10T09:00:16;21.10;54.60
21734;DHT22;11029;47.820;10.534;2023-06-10T09:02:44;21.30;53.30
21734;DHT22;11029;47.820;10.534;2023-06-10T09:05:11;21.40;53.60
21734;DHT22;11029;47.820;10.534;2023-06-10T09:07:38;21.40;52.50
21734;DHT22;11029;47.820;10.534;2023-06-10T09:10:05;21.30;51.70
21734;DHT22;11029;47.820;10.534;2023-06-10T09:12:35;21.20;53.10
21734;DHT22;11029;47.820;10.534;2023-06-10T09:15:02;21.20;52.80
21734;DHT22;11029;47.820;10.534;2023-06-10T09:17:29;21.30;53.40
21734;DHT22;11029;47.820;10.534;2023-06-10T09:19:56;21.30;53.20
21734;DHT22;11029;47.820;10.534;2023-06-10T09:22:24;21.40;51.70
21734;DHT22;11029;47.820;10.534;2023-06-10T09:25:02;21.50;51.80
21734;DHT22;11029;47.820;10.534;2023-06-10T09:27:30;21.60;51.60
21734;DHT22;11029;47.820;10.534;2023-06-10T09:29:58;21.60;51.40
21734;DHT22;11029;47.820;10.534;2023-06-10T09:32:26;21.70;51.70
21734;DHT22;11029;47.820;10.534;2023-06-10T09:34:53;21.80;51.30
21734;DHT22;11029;47.820;10.534;2023-06-10T09:37:23;21.90;51.20
21734;DHT22;11029;47.820;10.534;2023-06-10T09:40:02;22.10;51.00
21734;DHT22;11029;47.820;10.534;2023-06-10T09:42:32;22.10;48.50
21734;DHT22;11029;47.820;10.534;2023-06-10T09:45:00;22.10;49.20
21734;DHT22;11029;47.820;10.534;2023-06-10T09:47:26;22.10;50.60
21734;DHT22;11029;47.820;10.534;2023-06-10T09:49:54;22.20;50.50
21734;DHT22;11029;47.820;10.534;2023-06-10T09:52:24;22.20;50.20
21734;DHT22;11029;47.820;10.534;2023-06-10T09:54:52;22.20;50.20
21734;DHT22;11029;47.820;10.534;2023-06-10T09:57:21;22.00;50.40
21734;DHT22;11029;47.820;10.534;2023-06-10T09:59:49;21.90;52.20
21734;DHT22;11029;47.820;10.534;2023-06-10T10:02:19;22.00;52.00
21734;DHT22;11029;47.820;10.534;2023-06-10T10:04:46;22.10;51.00
21734;DHT22;11029;47.820;10.534;2023-06-10T10:07:13;22.30;48.60
21734;DHT22;11029;47.820;10.534;2023-06-10T10:09:41;22.60;50.60
21734;DHT22;11029;47.820;10.534;2023-06-10T10:12:09;22.70;48.70
21734;DHT22;11029;47.820;10.534;2023-06-10T10:14:37;22.80;47.40
21734;DHT22;11029;47.820;10.534;2023-06-10T10:17:09;22.90;46.10
21734;DHT22;11029;47.820;10.534;2023-06-10T10:19:43;22.90;47.30
21734;DHT22;11029;47.820;10.534;2023-06-10T10:22:16;22.70;48.40
21734;DHT22;11029;47.820;10.534;2023-06-10T10:24:56;22.60;48.50
21734;DHT22;11029;47.820;10.534;2023-06-10T10:27:48;22.40;47.90
21734;DHT22;11029;47.820;10.534;2023-06-10T10:30:17;22.30;48.30
21734;DHT22;11029;47.820;10.534;2023-06-10T10:32:58;22.40;48.70
21734;DHT22;11029;47.820;10.534;2023-06-10T10:35:28;22.80;48.20
21734;DHT22;11029;47.820;10.534;2023-06-10T10:37:56;23.00;47.40
21734;DHT22;11029;47.820;10.534;2023-06-10T10:40:24;23.20;45.40
21734;DHT22;11029;47.820;10.534;2023-06-10T10:42:52;23.30;45.00
21734;DHT22;11029;47.820;10.534;2023-06-10T10:45:21;23.40;45.50
21734;DHT22;11029;47.820;10.534;2023-06-10T10:47:52;23.50;45.40
21734;DHT22;11029;47.820;10.534;2023-06-10T10:50:20;23.70;46.00
21734;DHT22;11029;47.820;10.534;2023-06-10T10:52:55;23.80;45.00
21734;DHT22;11029;47.820;10.534;2023-06-10T10:55:23;24.00;44.40
21734;DHT22;11029;47.820;10.534;2023-06-10T10:58:07;24.10;43.90
21734;DHT22;11029;47.820;10.534;2023-06-10T11:00:43;24.20;42.40
21734;DHT22;11029;47.820;10.534;2023-06-10T11:03:14;24.00;43.40
21734;DHT22;11029;47.820;10.534;2023-06-10T11:05:45;23.90;43.10
21734;DHT22;11029;47.820;10.534;2023-06-10T11:11:25;24.30;44.10
21734;DHT22;11029;47.820;10.534;2023-06-10T11:16:29;24.60;46.50
21734;DHT22;11029;47.820;10.534;2023-06-10T11:18:56;24.70;46.80
21734;DHT22;11029;47.820;10.534;2023-06-10T11:21:24;24.60;46.90
21734;DHT22;11029;47.820;10.534;2023-06-10T11:23:58;24.70;46.50
21734;DHT22;11029;47.820;10.534;2023-06-10T11:31:32;24.70;46.00
21734;DHT22;11029;47.820;10.534;2023-06-10T11:34:02;24.30;45.60
21734;DHT22;11029;47.820;10.534;2023-06-10T11:36:38;24.00;45.70
21734;DHT22;11029;47.820;10.534;2023-06-10T11:39:10;23.80;45.20
21734;DHT22;11029;47.820;10.534;2023-06-10T11:41:38;23.70;45.30
21734;DHT22;11029;47.820;10.534;2023-06-10T11:44:12;23.60;46.30
21734;DHT22;11029;47.820;10.534;2023-06-10T11:46:45;23.50;46.10
21734;DHT22;11029;47.820;10.534;2023-06-10T11:49:14;23.50;46.90
21734;DHT22;11029;47.820;10.534;2023-06-10T11:51:41;23.40;47.40
21734;DHT22;11029;47.820;10.534;2023-06-10T11:54:15;23.30;47.50
21734;DHT22;11029;47.820;10.534;2023-06-10T11:56:42;23.30;46.90
21734;DHT22;11029;47.820;10.534;2023-06-10T11:59:09;23.40;47.70
21734;DHT22;11029;47.820;10.534;2023-06-10T12:01:40;23.60;46.60
21734;DHT22;11029;47.820;10.534;2023-06-10T12:04:12;23.50;46.90
21734;DHT22;11029;47.820;10.534;2023-06-10T12:06:41;23.50;46.70
21734;DHT22;11029;47.820;10.534;2023-06-10T12:09:29;23.30;46.10
21734;DHT22;11029;47.820;10.534;2023-06-10T12:12:04;23.20;47.10
21734;DHT22;11029;47.820;10.534;2023-06-10T12:15:10;23.20;47.00
21734;DHT22;11029;47.820;10.534;2023-06-10T12:17:38;23.50;45.80
21734;DHT22;11029;47.820;10.534;2023-06-10T12:20:23;23.80;45.30
21734;DHT22;11029;47.820;10.534;2023-06-10T12:22:50;24.00;44.40
21734;DHT22;11029;47.820;10.534;2023-06-10T12:25:27;24.30;45.70
21734;DHT22;11029;47.820;10.534;2023-06-10T12:27:56;24.40;44.70
21734;DHT22;11029;47.820;10.534;2023-06-10T12:30:26;24.40;45.10
21734;DHT22;11029;47.820;10.534;2023-06-10T12:32:53;24.40;44.90
21734;DHT22;11029;47.820;10.534;2023-06-10T12:35:25;24.30;44.50
21734;DHT22;11029;47.820;10.534;2023-06-10T12:37:59;24.50;43.60
21734;DHT22;11029;47.820;10.534;2023-06-10T12:40:30;24.60;43.90
21734;DHT22;11029;47.820;10.534;2023-06-10T12:42:58;24.70;42.90
21734;DHT22;11029;47.820;10.534;2023-06-10T12:45:31;24.90;43.20
21734;DHT22;11029;47.820;10.534;2023-06-10T12:48:24;25.10;44.10
21734;DHT22;11029;47.820;10.534;2023-06-10T12:50:56;25.20;43.80
21734;DHT22;11029;47.820;10.534;2023-06-10T12:53:24;25.30;43.60
21734;DHT22;11029;47.820;10.534;2023-06-10T12:55:52;25.20;44.40
21734;DHT22;11029;47.820;10.534;2023-06-10T12:58:22;25.10;43.30
21734;DHT22;11029;47.820;10.534;2023-06-10T13:00:49;24.70;44.60
21734;DHT22;11029;47.820;10.534;2023-06-10T13:03:19;24.40;44.40
21734;DHT22;11029;47.820;10.534;2023-06-10T13:05:46;24.20;44.40
21734;DHT22;11029;47.820;10.534;2023-06-10T13:08:13;24.10;44.30
21734;DHT22;11029;47.820;10.534;2023-06-10T13:10:40;24.00;44.30
21734;DHT22;11029;47.820;10.534;2023-06-10T13:13:07;24.20;44.60
21734;DHT22;11029;47.820;10.534;2023-06-10T13:15:36;24.50;43.70
21734;DHT22;11029;47.820;10.534;2023-06-10T13:18:09;24.90;44.00
21734;DHT22;11029;47.820;10.534;2023-06-10T13:20:35;25.00;43.80
21734;DHT22;11029;47.820;10.534;2023-06-10T13:23:02;24.80;44.00
21734;DHT22;11029;47.820;10.534;2023-06-10T13:25:29;24.90;44.80
21734;DHT22;11029;47.820;10.534;2023-06-10T13:27:56;24.70;44.20
21734;DHT22;11029;47.820;10.534;2023-06-10T13:30:24;24.40;44.20
21734;DHT22;11029;47.820;10.534;2023-06-10T13:32:50;24.10;44.50
21734;DHT22;11029;47.820;10.534;2023-06-10T13:35:17;23.90;45.10
21734;DHT22;11029;47.820;10.534;2023-06-10T13:37:44;23.90;46.00
21734;DHT22;11029;47.820;10.534;2023-06-10T13:40:11;24.20;44.40
21734;DHT22;11029;47.820;10.534;2023-06-10T13:42:38;24.70;44.00
21734;DHT22;11029;47.820;10.534;2023-06-10T13:45:06;25.20;43.80
21734;DHT22;11029;47.820;10.534;2023-06-10T13:47:33;25.50;42.60
21734;DHT22;11029;47.820;10.534;2023-06-10T13:50:00;25.40;42.70
21734;DHT22;11029;47.820;10.534;2023-06-10T13:52:27;25.80;41.70
21734;DHT22;11029;47.820;10.534;2023-06-10T13:54:54;25.70;41.20
21734;DHT22;11029;47.820;10.534;2023-06-10T13:57:20;25.50;41.70
21734;DHT22;11029;47.820;10.534;2023-06-10T13:59:47;25.20;42.30
21734;DHT22;11029;47.820;10.534;2023-06-10T14:02:14;25.00;42.60
21734;DHT22;11029;47.820;10.534;2023-06-10T14:04:41;24.80;43.80
21734;DHT22;11029;47.820;10.534;2023-06-10T14:07:08;24.80;43.00
21734;DHT22;11029;47.820;10.534;2023-06-10T14:09:35;25.00;43.20
21734;DHT22;11029;47.820;10.534;2023-06-10T14:12:02;25.20;42.60
21734;DHT22;11029;47.820;10.534;2023-06-10T14:14:30;24.90;42.20
21734;DHT22;11029;47.820;10.534;2023-06-10T14:16:57;24.80;43.10
21734;DHT22;11029;47.820;10.534;2023-06-10T14:19:24;24.60;43.20
21734;DHT22;11029;47.820;10.534;2023-06-10T14:21:51;25.00;42.40
21734;DHT22;11029;47.820;10.534;2023-06-10T14:24:20;25.60;41.10
21734;DHT22;11029;47.820;10.534;2023-06-10T14:26:47;26.30;40.00
21734;DHT22;11029;47.820;10.534;2023-06-10T14:29:14;26.80;39.30
21734;DHT22;11029;47.820;10.534;2023-06-10T14:31:41;27.40;39.00
21734;DHT22;11029;47.820;10.534;2023-06-10T14:34:08;27.20;39.30
21734;DHT22;11029;47.820;10.534;2023-06-10T14:36:36;26.90;39.70
21734;DHT22;11029;47.820;10.534;2023-06-10T14:39:03;27.00;39.70
21734;DHT22;11029;47.820;10.534;2023-06-10T14:41:30;27.20;39.80
21734;DHT22;11029;47.820;10.534;2023-06-10T14:43:57;27.40;39.50
21734;DHT22;11029;47.820;10.534;2023-06-10T14:46:24;27.30;39.00
21734;DHT22;11029;47.820;10.534;2023-06-10T14:48:51;27.40;39.00
21734;DHT22;11029;47.820;10.534;2023-06-10T14:51:17;27.50;38.30
21734;DHT22;11029;47.820;10.534;2023-06-10T14:53:44;27.10;39.30
21734;DHT22;11029;47.820;10.534;2023-06-10T14:56:12;26.70;40.30
21734;DHT22;11029;47.820;10.534;2023-06-10T14:58:39;26.60;40.60
21734;DHT22;11029;47.820;10.534;2023-06-10T15:01:05;26.90;40.20
21734;DHT22;11029;47.820;10.534;2023-06-10T15:03:32;26.80;39.80
21734;DHT22;11029;47.820;10.534;2023-06-10T15:05:59;26.50;40.60
21734;DHT22;11029;47.820;10.534;2023-06-10T15:08:27;26.70;40.80
21734;DHT22;11029;47.820;10.534;2023-06-10T15:10:57;27.10;40.00
21734;DHT22;11029;47.820;10.534;2023-06-10T15:16:02;27.40;39.60
21734;DHT22;11029;47.820;10.534;2023-06-10T15:18:30;27.50;38.80
21734;DHT22;11029;47.820;10.534;2023-06-10T15:20:56;27.50;39.00
21734;DHT22;11029;47.820;10.534;2023-06-10T15:23:23;27.70;39.40
21734;DHT22;11029;47.820;10.534;2023-06-10T15:25:50;27.90;38.40
21734;DHT22;11029;47.820;10.534;2023-06-10T15:28:17;27.90;38.50
21734;DHT22;11029;47.820;10.534;2023-06-10T15:30:43;28.00;39.00
21734;DHT22;11029;47.820;10.534;2023-06-10T15:33:10;28.20;39.00
21734;DHT22;11029;47.820;10.534;2023-06-10T15:35:37;28.30;37.70
21734;DHT22;11029;47.820;10.534;2023-06-10T15:38:04;28.50;37.50
21734;DHT22;11029;47.820;10.534;2023-06-10T15:40:30;28.30;37.80